createdAt,value
2023-02-27T01:44:07.096Z,39.60
2023-02-27T01:46:37.536Z,37.38
2023-02-27T01:49:17.169Z,29.80
2023-02-27T01:51:55.346Z,33.63
2023-02-27T01:54:28.654Z,32.05
2023-02-27T01:56:58.962Z,31.33
2023-02-27T01:59:28.857Z,29.73
2023-02-27T02:01:59.860Z,33.08
2023-02-27T02:04:40.251Z,34.92
2023-02-27T02:07:15.350Z,31.30
2023-02-27T02:09:51.529Z,27.00
2023-02-27T02:12:24.831Z,30.52
2023-02-27T02:14:55.143Z,33.38
2023-02-27T02:18:04.033Z,28.40
2023-02-27T02:21:13.500Z,30.40
2023-02-27T02:24:22.342Z,25.60
2023-02-27T02:27:20.873Z,31.65
2023-02-27T02:30:29.787Z,26.75
2023-02-27T02:33:38.910Z,31.13
2023-02-27T02:36:48.107Z,27.23
2023-02-27T02:39:52.560Z,38.05
2023-02-27T02:42:47.784Z,28.88
2023-02-27T02:45:51.259Z,31.58
2023-02-27T02:48:56.548Z,27.80
2023-02-27T02:51:39.234Z,30.92
2023-02-27T02:54:34.736Z,32.95
2023-02-27T02:57:28.689Z,32.03
2023-02-27T03:00:21.190Z,28.45
2023-02-27T03:03:01.912Z,26.80
2023-02-27T03:05:38.705Z,28.48
2023-02-27T03:08:17.435Z,28.10
2023-02-27T03:11:02.075Z,28.50
2023-02-27T03:13:50.824Z,31.50
2023-02-27T03:16:46.044Z,25.95
2023-02-27T03:19:49.008Z,38.33
2023-02-27T03:22:25.827Z,40.53
2023-02-27T03:25:01.265Z,25.33
2023-02-27T03:27:38.283Z,24.88
2023-02-27T03:30:34.850Z,26.02
2023-02-27T03:33:15.695Z,34.13
2023-02-27T03:36:24.750Z,24.02
2023-02-27T03:39:07.522Z,26.02
2023-02-27T03:42:05.179Z,26.95
2023-02-27T03:44:46.773Z,30.10
2023-02-27T03:47:17.556Z,20.02
2023-02-27T03:49:47.574Z,28.42
2023-02-27T03:52:17.659Z,24.27
2023-02-27T03:54:57.071Z,28.02
2023-02-27T03:57:27.214Z,26.13
2023-02-27T03:59:57.711Z,23.83
2023-02-27T04:02:28.751Z,27.83
2023-02-27T04:04:58.685Z,22.50
2023-02-27T04:07:50.878Z,26.33
2023-02-27T04:10:59.771Z,27.45
2023-02-27T04:13:53.620Z,22.27
2023-02-27T04:16:50.380Z,25.63
2023-02-27T04:19:55.573Z,23.65
2023-02-27T04:22:41.348Z,22.00
2023-02-27T04:25:45.857Z,23.08
2023-02-27T04:28:47.231Z,17.85
2023-02-27T04:31:35.069Z,21.77
2023-02-27T04:34:30.838Z,19.73
2023-02-27T04:37:25.188Z,20.92
2023-02-27T04:40:07.506Z,22.48
2023-02-27T04:42:42.491Z,24.33
2023-02-27T04:45:16.433Z,20.10
2023-02-27T04:47:54.109Z,19.13
2023-02-27T04:50:33.046Z,20.42
2023-02-27T04:53:29.783Z,24.70
2023-02-27T04:56:12.963Z,23.90
2023-02-27T04:58:56.398Z,23.70
2023-02-27T05:01:45.906Z,18.73
2023-02-27T05:04:19.797Z,19.10
2023-02-27T05:06:51.877Z,22.73
2023-02-27T05:09:47.542Z,18.08
2023-02-27T05:12:43.583Z,23.27
2023-02-27T05:15:30.590Z,23.88
2023-02-27T05:18:08.510Z,17.73
2023-02-27T05:21:11.975Z,17.23
2023-02-27T05:24:20.960Z,21.15
2023-02-27T05:27:17.070Z,21.23
2023-02-27T05:29:56.589Z,19.40
2023-02-27T05:32:54.155Z,18.65
2023-02-27T05:35:59.576Z,23.40
2023-02-27T05:38:43.064Z,23.77
2023-02-27T05:41:21.473Z,21.05
2023-02-27T05:44:06.230Z,21.83
2023-02-27T05:46:45.033Z,94.05
2023-02-27T05:49:25.760Z,19.20
2023-02-27T05:51:59.430Z,20.17
2023-02-27T05:54:43.890Z,20.42
2023-02-27T05:57:20.116Z,22.27
2023-02-27T06:00:05.172Z,23.52
2023-02-27T06:02:35.386Z,21.67
2023-02-27T06:05:05.292Z,21.00
2023-02-27T06:07:35.938Z,20.00
2023-02-27T06:10:08.328Z,24.13
2023-02-27T06:12:38.364Z,21.60
2023-02-27T06:15:08.730Z,20.98
2023-02-27T06:17:38.775Z,20.10
2023-02-27T06:20:10.473Z,19.83
2023-02-27T06:22:40.501Z,25.10
2023-02-27T06:25:11.799Z,20.00
2023-02-27T06:27:42.124Z,23.80
2023-02-27T06:30:12.736Z,21.45
2023-02-27T06:32:42.897Z,22.48
2023-02-27T06:35:13.059Z,21.05
2023-02-27T06:37:43.072Z,20.90
2023-02-27T06:40:14.067Z,18.67
2023-02-27T06:42:45.391Z,21.15
2023-02-27T06:45:17.493Z,20.10
2023-02-27T06:47:47.501Z,19.42
2023-02-27T06:50:18.367Z,21.92
2023-02-27T06:52:48.455Z,23.08
2023-02-27T06:55:24.427Z,21.45
2023-02-27T06:57:54.413Z,25.83
2023-02-27T07:00:24.842Z,19.48
2023-02-27T07:02:54.837Z,17.52
2023-02-27T07:05:24.890Z,18.15
2023-02-27T07:07:54.626Z,23.20
2023-02-27T07:10:24.589Z,20.90
2023-02-27T07:12:54.745Z,31.52
2023-02-27T07:15:25.000Z,20.17
2023-02-27T07:17:56.455Z,18.75
2023-02-27T07:20:26.250Z,18.60
2023-02-27T07:22:56.063Z,20.85
2023-02-27T07:25:26.109Z,21.63
2023-02-27T07:27:57.006Z,20.13
2023-02-27T07:30:26.997Z,24.20
2023-02-27T07:32:57.051Z,20.02
2023-02-27T07:35:27.336Z,20.23
2023-02-27T07:37:57.136Z,20.48
2023-02-27T07:40:27.047Z,24.45
2023-02-27T07:42:57.039Z,17.38
2023-02-27T07:45:26.992Z,27.95
2023-02-27T07:47:56.839Z,20.05
2023-02-27T07:50:27.857Z,18.67
2023-02-27T07:52:58.102Z,19.27
2023-02-27T07:55:27.975Z,20.30
2023-02-27T07:57:57.916Z,23.05
2023-02-27T08:00:27.948Z,22.33
2023-02-27T08:02:57.749Z,18.08
2023-02-27T08:05:27.644Z,19.92
2023-02-27T08:07:57.828Z,22.45
2023-02-27T08:10:28.381Z,21.60
2023-02-27T08:12:58.338Z,25.77
2023-02-27T08:15:28.232Z,24.60
2023-02-27T08:17:57.997Z,18.92
2023-02-27T08:20:27.862Z,20.38
2023-02-27T08:23:00.712Z,18.05
2023-02-27T08:25:31.964Z,19.83
2023-02-27T08:28:01.892Z,20.67
2023-02-27T08:30:31.986Z,18.58
2023-02-27T08:33:02.117Z,17.58
2023-02-27T08:35:32.417Z,18.40
2023-02-27T08:38:02.256Z,22.77
2023-02-27T08:40:31.910Z,20.02
2023-02-27T08:43:01.929Z,17.45
2023-02-27T08:45:31.860Z,18.20
2023-02-27T08:48:01.675Z,28.67
2023-02-27T08:50:32.596Z,20.15
2023-02-27T08:53:02.496Z,20.55
2023-02-27T08:55:32.400Z,22.38
2023-02-27T08:58:02.520Z,21.77
2023-02-27T09:00:34.204Z,45.65
2023-02-27T09:03:04.288Z,40.90
2023-02-27T09:05:36.945Z,22.33
2023-02-27T09:08:09.019Z,21.27
2023-02-27T09:10:39.138Z,24.90
2023-02-27T09:13:08.950Z,29.65
2023-02-27T09:15:39.678Z,21.60
2023-02-27T09:18:09.689Z,17.70
2023-02-27T09:20:39.638Z,22.65
2023-02-27T09:23:09.974Z,22.42
2023-02-27T09:25:40.019Z,22.33
2023-02-27T09:28:10.037Z,19.58
2023-02-27T09:30:39.824Z,20.73
2023-02-27T09:33:09.682Z,27.77
2023-02-27T09:35:40.122Z,23.88
2023-02-27T09:38:10.424Z,19.60
2023-02-27T09:40:43.912Z,22.25
2023-02-27T09:43:22.921Z,17.80
2023-02-27T09:45:57.994Z,21.33
2023-02-27T09:48:57.817Z,19.92
2023-02-27T09:51:30.387Z,20.77
2023-02-27T09:54:03.969Z,23.70
2023-02-27T09:56:42.826Z,20.90
2023-02-27T09:59:42.216Z,25.48
2023-02-27T10:02:43.165Z,19.27
2023-02-27T10:05:37.831Z,22.05
2023-02-27T10:08:24.185Z,16.75
2023-02-27T10:11:09.558Z,24.50
2023-02-27T10:14:03.485Z,21.27
2023-02-27T10:16:36.022Z,23.10
2023-02-27T10:19:09.781Z,19.00
2023-02-27T10:21:44.125Z,20.80
2023-02-27T10:24:39.357Z,26.08
2023-02-27T10:27:15.729Z,23.10
2023-02-27T10:29:45.776Z,19.33
2023-02-27T10:32:23.080Z,19.40
2023-02-27T10:35:29.123Z,24.63
2023-02-27T10:38:04.054Z,18.33
2023-02-27T10:40:37.247Z,21.25
2023-02-27T10:43:09.113Z,23.73
2023-02-27T10:45:39.154Z,23.63
2023-02-27T10:48:10.240Z,23.00
2023-02-27T10:50:47.160Z,25.45
2023-02-27T10:53:28.808Z,24.10
2023-02-27T10:56:12.571Z,22.33
2023-02-27T10:58:42.592Z,23.00
2023-02-27T11:01:13.626Z,19.55
2023-02-27T11:03:50.497Z,22.35
2023-02-27T11:06:29.820Z,26.98
2023-02-27T11:09:24.424Z,39.72
2023-02-27T11:11:55.020Z,51.03
2023-02-27T11:14:34.885Z,50.22
2023-02-27T11:17:06.057Z,56.17
2023-02-27T11:19:41.312Z,61.95
2023-02-27T11:22:23.214Z,57.92
2023-02-27T11:24:54.985Z,53.30
2023-02-27T11:27:28.814Z,55.63
2023-02-27T11:30:01.434Z,71.53
2023-02-27T11:32:46.096Z,87.80
2023-02-27T11:35:37.251Z,100.72
2023-02-27T11:38:28.157Z,116.35
2023-02-27T11:41:01.768Z,134.98
2023-02-27T11:43:36.544Z,131.77
2023-02-27T11:46:36.734Z,141.60
2023-02-27T11:49:32.442Z,146.57
2023-02-27T11:52:15.577Z,129.00
2023-02-27T11:54:57.961Z,90.30
2023-02-27T11:57:35.850Z,61.03
2023-02-27T12:00:31.722Z,46.90
2023-02-27T12:03:24.959Z,35.55
2023-02-27T12:06:01.224Z,38.50
2023-02-27T12:08:49.482Z,33.70
2023-02-27T12:11:29.943Z,28.40
2023-02-27T12:14:18.745Z,30.15
2023-02-27T12:17:00.186Z,33.45
2023-02-27T12:19:47.693Z,39.25
2023-02-27T12:22:39.370Z,32.90
2023-02-27T12:25:16.771Z,26.00
2023-02-27T12:28:22.853Z,32.90
2023-02-27T12:31:32.120Z,30.58
2023-02-27T12:34:28.233Z,29.90
2023-02-27T12:37:07.767Z,29.98
2023-02-27T12:39:37.478Z,35.42
2023-02-27T12:42:35.772Z,32.72
2023-02-27T12:45:33.820Z,36.70
2023-02-27T12:48:31.746Z,31.67
2023-02-27T12:54:29.769Z,34.53
2023-02-27T12:57:26.344Z,34.08
2023-02-27T13:00:21.359Z,31.98
2023-02-27T13:03:20.513Z,38.42
2023-02-27T13:06:20.881Z,44.47
2023-02-27T13:09:23.710Z,41.50
2023-02-27T13:12:17.810Z,51.47
2023-02-27T13:15:08.935Z,45.55
2023-02-27T13:17:55.009Z,38.13
2023-02-27T13:20:52.332Z,63.15
2023-02-27T13:23:32.067Z,56.55
2023-02-27T13:26:03.797Z,55.35
2023-02-27T13:28:34.653Z,59.47
2023-02-27T13:31:30.414Z,53.88
2023-02-27T13:34:39.651Z,60.35
2023-02-27T13:37:11.118Z,81.50
2023-02-27T13:39:55.340Z,58.45
2023-02-27T13:42:55.455Z,65.43
2023-02-27T13:45:52.509Z,61.35
2023-02-27T13:48:41.912Z,65.43
2023-02-27T13:51:33.552Z,62.80
2023-02-27T13:54:26.372Z,61.92
2023-02-27T13:57:21.385Z,66.22
2023-02-27T13:59:57.917Z,65.75
2023-02-27T14:02:59.943Z,65.60
2023-02-27T14:05:41.131Z,55.72
2023-02-27T14:08:26.788Z,57.00
2023-02-27T14:11:15.393Z,61.00
2023-02-27T14:14:05.917Z,52.28
2023-02-27T14:16:55.634Z,54.22
2023-02-27T14:19:45.341Z,61.03
2023-02-27T14:22:35.602Z,47.63
2023-02-27T14:25:33.622Z,64.82
2023-02-27T14:30:44.611Z,46.53
2023-02-27T14:33:40.399Z,48.58
2023-02-27T14:36:24.794Z,51.15
2023-02-27T14:38:59.488Z,44.22
2023-02-27T14:41:58.375Z,47.88
2023-02-27T14:44:31.918Z,49.75
2023-02-27T14:47:05.093Z,44.65
2023-02-27T14:49:37.490Z,54.20
2023-02-27T14:52:23.785Z,49.70
2023-02-27T14:54:55.192Z,52.42
2023-02-27T14:57:29.934Z,52.28
2023-02-27T15:00:00.029Z,59.15
2023-02-27T15:02:39.370Z,60.92
2023-02-27T15:05:22.794Z,50.58
2023-02-27T15:07:54.359Z,54.45
2023-02-27T15:10:35.677Z,55.28
2023-02-27T15:13:07.191Z,55.42
2023-02-27T15:15:37.158Z,54.38
2023-02-27T15:18:16.673Z,52.80
2023-02-27T15:20:46.714Z,53.45
2023-02-27T15:23:27.892Z,64.45
2023-02-27T15:26:00.012Z,65.60
2023-02-27T15:28:38.286Z,69.35
2023-02-27T15:33:39.567Z,55.35
2023-02-27T15:36:11.407Z,62.60
2023-02-27T15:38:41.385Z,68.32
2023-02-27T15:41:14.996Z,62.22
2023-02-27T15:43:45.556Z,61.38
2023-02-27T15:46:15.699Z,57.92
2023-02-27T15:48:45.624Z,61.40
2023-02-27T15:51:15.690Z,67.53
2023-02-27T15:53:52.525Z,72.85
2023-02-27T15:56:28.472Z,69.55
2023-02-27T15:59:02.890Z,65.93
2023-02-27T16:01:36.605Z,68.05
2023-02-27T16:04:18.030Z,62.05
2023-02-27T16:07:03.176Z,68.13
2023-02-27T16:09:38.882Z,62.00
2023-02-27T16:12:39.107Z,69.28
2023-02-27T16:15:36.509Z,66.47
2023-02-27T16:18:31.471Z,67.40
2023-02-27T16:21:13.087Z,69.28
2023-02-27T16:23:43.450Z,71.00
2023-02-27T16:26:34.444Z,71.57
2023-02-27T16:29:26.270Z,68.85
2023-02-27T16:31:58.746Z,68.10
2023-02-27T16:34:47.815Z,64.50
2023-02-27T16:37:39.868Z,61.53
2023-02-27T16:40:26.892Z,73.63
2023-02-27T16:42:56.885Z,74.32
2023-02-27T16:45:29.551Z,67.20
2023-02-27T16:48:01.601Z,78.63
2023-02-27T16:50:40.698Z,66.82
2023-02-27T16:53:10.786Z,72.13
2023-02-27T16:55:45.358Z,73.88
2023-02-27T16:58:18.166Z,75.80
2023-02-27T17:00:48.864Z,72.32
2023-02-27T17:03:19.257Z,71.68
2023-02-27T17:05:50.529Z,72.70
2023-02-27T17:08:21.294Z,69.60
2023-02-27T17:10:51.258Z,71.68
2023-02-27T17:13:21.286Z,73.25
2023-02-27T17:15:51.091Z,74.55
2023-02-27T17:18:21.165Z,89.15
2023-02-27T17:20:53.007Z,82.70
2023-02-27T17:23:23.015Z,73.88
2023-02-27T17:25:54.345Z,72.70
2023-02-27T17:28:25.385Z,81.45
2023-02-27T17:30:56.599Z,74.82
2023-02-27T17:33:26.711Z,81.15
2023-02-27T17:36:05.341Z,77.65
2023-02-27T17:38:35.423Z,83.13
2023-02-27T17:41:12.837Z,82.60
2023-02-27T17:43:46.195Z,107.00
2023-02-27T17:46:16.472Z,88.53
2023-02-27T17:48:46.472Z,84.32
2023-02-27T17:51:18.551Z,103.18
2023-02-27T17:53:48.692Z,93.28
2023-02-27T17:56:18.805Z,85.60
2023-02-27T17:58:48.792Z,98.32
2023-02-27T18:05:20.713Z,93.90
2023-02-27T18:07:50.462Z,93.15
2023-02-27T18:10:20.256Z,99.32
2023-02-27T18:12:49.998Z,87.88
2023-02-27T18:15:19.940Z,87.18
2023-02-27T18:17:49.672Z,98.40
2023-02-27T18:20:19.488Z,93.72
2023-02-27T18:22:49.295Z,93.75
2023-02-27T18:25:19.157Z,90.43
2023-02-27T18:27:48.846Z,89.72
2023-02-27T18:30:21.947Z,95.30
2023-02-27T18:32:51.929Z,110.95
2023-02-27T18:35:22.385Z,103.40
2023-02-27T18:37:52.046Z,94.25
2023-02-27T18:40:26.188Z,100.10
2023-02-27T18:42:55.887Z,97.97
2023-02-27T18:45:26.320Z,86.20
2023-02-27T18:47:56.476Z,95.32
2023-02-27T18:50:26.956Z,101.20
2023-02-27T18:52:57.878Z,97.28
2023-02-27T18:55:27.580Z,106.85
2023-02-27T18:57:57.101Z,100.68
2023-02-27T19:00:26.879Z,114.68
2023-02-27T19:02:56.527Z,103.70
2023-02-27T19:05:27.064Z,106.18
2023-02-27T19:07:56.735Z,102.75
2023-02-27T19:10:26.338Z,100.70
2023-02-27T19:12:56.262Z,99.05
2023-02-27T19:15:26.027Z,96.32
2023-02-27T19:17:56.428Z,105.15
2023-02-27T19:20:26.112Z,107.65
2023-02-27T19:22:55.773Z,102.72
2023-02-27T19:25:25.334Z,101.55
2023-02-27T19:27:58.791Z,110.68
2023-02-27T19:30:28.562Z,108.05
2023-02-27T19:32:58.242Z,109.68
2023-02-27T19:35:29.920Z,101.63
2023-02-27T19:38:00.468Z,106.45
2023-02-27T19:40:30.320Z,108.35
2023-02-27T19:43:00.424Z,97.85
2023-02-27T19:45:32.776Z,97.25
2023-02-27T19:48:03.219Z,102.28
2023-02-27T19:50:32.957Z,109.00
2023-02-27T19:53:03.135Z,101.28
2023-02-27T19:55:32.987Z,106.57
2023-02-27T19:58:03.152Z,125.95
2023-02-27T20:00:33.028Z,108.40
2023-02-27T20:03:02.865Z,104.60
2023-02-27T20:05:33.574Z,121.07
2023-02-27T20:08:03.350Z,109.28
2023-02-27T20:10:33.227Z,106.25
2023-02-27T20:13:02.848Z,113.28
2023-02-27T20:15:32.676Z,108.13
2023-02-27T20:18:02.421Z,103.28
2023-02-27T20:20:32.193Z,107.38
2023-02-27T20:23:01.831Z,110.65
2023-02-27T20:25:32.338Z,122.30
2023-02-27T20:28:02.020Z,106.68
2023-02-27T20:30:31.649Z,113.38
2023-02-27T20:33:01.701Z,106.07
2023-02-27T20:35:31.688Z,103.65
2023-02-27T20:38:01.335Z,107.28
2023-02-27T20:40:31.331Z,107.07
2023-02-27T21:43:34.270Z,114.82
2023-02-27T21:46:10.373Z,116.55
2023-02-27T21:48:40.362Z,115.68
2023-02-27T21:51:10.073Z,122.43
2023-02-27T21:53:39.879Z,117.07
2023-02-27T21:56:11.720Z,120.68
2023-02-27T21:58:42.315Z,118.68
2023-02-27T22:01:17.352Z,123.22
2023-02-27T22:03:48.384Z,137.98
2023-02-27T22:06:19.088Z,134.57
2023-02-27T22:08:48.922Z,131.15
2023-02-27T22:11:18.529Z,129.23
2023-02-27T22:13:48.178Z,132.75
2023-02-27T22:16:18.072Z,131.80
2023-02-27T22:18:48.206Z,134.05
2023-02-27T22:21:24.520Z,129.88
2023-02-27T22:23:54.852Z,137.20
2023-02-27T22:26:27.122Z,131.10
2023-02-27T22:28:59.217Z,140.07
2023-02-27T22:31:31.747Z,135.90
2023-02-27T22:34:12.452Z,140.95
2023-02-27T22:36:43.802Z,144.57
2023-02-27T22:39:14.483Z,138.10
2023-02-27T22:41:44.915Z,135.15
2023-02-27T22:48:59.206Z,132.20
2023-02-27T22:56:11.581Z,133.63
2023-02-27T23:10:23.181Z,124.93
2023-02-27T23:17:34.756Z,143.27
